createdAt,value
2018-07-27T00:01:43.636Z,26.90
2018-07-27T00:04:11.982Z,26.90
2018-07-27T00:06:40.220Z,26.80
2018-07-27T00:09:10.413Z,26.80
2018-07-27T00:11:38.795Z,26.80
2018-07-27T00:14:07.079Z,26.70
2018-07-27T00:16:35.442Z,26.70
2018-07-27T00:19:03.940Z,26.70
2018-07-27T00:21:32.343Z,26.70
2018-07-27T00:24:00.692Z,26.60
2018-07-27T00:26:28.983Z,26.60
2018-07-27T00:28:57.248Z,26.60
2018-07-27T00:31:25.520Z,26.60
2018-07-27T00:33:53.816Z,26.60
2018-07-27T00:36:22.220Z,26.60
2018-07-27T00:38:50.475Z,26.50
2018-07-27T00:41:18.756Z,26.50
2018-07-27T00:48:43.150Z,26.50
2018-07-27T00:51:11.404Z,26.50
2018-07-27T00:56:07.764Z,26.40
2018-07-27T00:58:36.071Z,26.40
2018-07-27T01:01:04.357Z,26.40
2018-07-27T01:06:00.777Z,26.30
2018-07-27T01:08:29.101Z,26.30
2018-07-27T01:10:57.383Z,26.30
2018-07-27T01:13:25.646Z,26.20
2018-07-27T01:15:53.943Z,26.20
2018-07-27T01:18:22.260Z,26.20
2018-07-27T01:20:50.542Z,26.20
2018-07-27T01:23:18.843Z,26.20
2018-07-27T01:28:15.175Z,26.10
2018-07-27T01:30:43.456Z,26.10
2018-07-27T01:33:11.727Z,26.10
2018-07-27T01:35:40.018Z,26.10
2018-07-27T01:38:08.281Z,26.10
2018-07-27T01:40:36.563Z,26.10
2018-07-27T01:43:04.892Z,26.00
2018-07-27T01:45:33.195Z,26.00
2018-07-27T01:48:01.508Z,26.00
2018-07-27T01:50:29.775Z,26.00
2018-07-27T01:52:58.080Z,26.00
2018-07-27T01:55:26.388Z,26.00
2018-07-27T02:00:22.741Z,26.00
2018-07-27T02:02:51.028Z,26.00
2018-07-27T02:05:19.310Z,26.00
2018-07-27T02:07:47.935Z,26.00
2018-07-27T02:12:44.588Z,25.90
2018-07-27T02:15:12.924Z,25.90
2018-07-27T02:17:41.239Z,25.90
2018-07-27T02:20:09.562Z,25.90
2018-07-27T02:22:37.906Z,25.90
2018-07-27T02:25:06.364Z,25.80
2018-07-27T02:30:04.264Z,25.80
2018-07-27T02:32:32.557Z,25.80
2018-07-27T02:42:24.979Z,25.70
2018-07-27T02:44:53.277Z,25.70
2018-07-27T02:47:21.560Z,25.70
2018-07-27T02:49:49.999Z,25.70
2018-07-27T02:52:18.308Z,25.60
2018-07-27T02:54:46.642Z,25.60
2018-07-27T02:59:42.974Z,25.60
2018-07-27T03:02:11.232Z,25.60
2018-07-27T03:04:40.094Z,25.50
2018-07-27T03:07:08.404Z,25.50
2018-07-27T03:12:04.909Z,25.50
2018-07-27T03:14:33.220Z,25.50
2018-07-27T03:17:01.516Z,25.50
2018-07-27T03:19:29.781Z,25.40
2018-07-27T03:21:58.405Z,25.40
2018-07-27T03:24:26.748Z,25.40
2018-07-27T03:26:55.084Z,25.40
2018-07-27T03:29:23.385Z,25.30
2018-07-27T03:31:51.706Z,25.30
2018-07-27T03:34:20.005Z,25.30
2018-07-27T03:36:48.283Z,25.30
2018-07-27T03:39:16.747Z,25.30
2018-07-27T03:41:45.066Z,25.30
2018-07-27T03:44:13.339Z,25.30
2018-07-27T03:49:09.603Z,25.20
2018-07-27T03:54:06.240Z,25.20
2018-07-27T03:56:34.693Z,25.20
2018-07-27T03:59:03.043Z,25.20
2018-07-27T04:01:31.355Z,25.10
2018-07-27T04:06:27.827Z,25.10
2018-07-27T04:08:56.151Z,25.10
2018-07-27T04:11:24.521Z,25.10
2018-07-27T04:13:53.143Z,25.10
2018-07-27T04:16:21.444Z,25.10
2018-07-27T04:18:49.803Z,25.10
2018-07-27T04:21:18.232Z,25.10
2018-07-27T04:23:46.727Z,25.10
2018-07-27T04:26:15.055Z,25.10
2018-07-27T04:28:43.371Z,25.10
2018-07-27T04:31:11.699Z,25.10
2018-07-27T04:33:39.994Z,25.00
2018-07-27T04:36:08.305Z,25.10
2018-07-27T04:38:36.870Z,25.00
2018-07-27T04:41:05.160Z,25.00
2018-07-27T04:43:33.488Z,25.00
2018-07-27T04:48:29.780Z,25.00
2018-07-27T04:50:58.063Z,25.10
2018-07-27T04:53:26.345Z,25.10
2018-07-27T04:58:22.808Z,25.10
2018-07-27T05:03:19.188Z,25.10
2018-07-27T05:05:47.771Z,25.10
2018-07-27T05:08:16.744Z,25.10
2018-07-27T05:10:49.843Z,25.10
2018-07-27T05:13:19.045Z,25.10
2018-07-27T05:15:48.255Z,25.10
2018-07-27T05:18:17.236Z,25.10
2018-07-27T05:20:45.539Z,25.20
2018-07-27T05:23:13.988Z,25.20
2018-07-27T05:28:10.744Z,25.30
2018-07-27T05:30:39.047Z,25.30
2018-07-27T05:33:07.357Z,25.40
2018-07-27T05:38:03.704Z,25.50
2018-07-27T05:40:32.056Z,25.60
2018-07-27T05:43:00.352Z,25.60
2018-07-27T05:45:28.653Z,25.60
2018-07-27T05:47:56.927Z,25.70
2018-07-27T05:50:25.244Z,25.70
2018-07-27T05:52:53.538Z,25.80
2018-07-27T05:55:21.856Z,25.80
2018-07-27T06:00:18.236Z,25.90
2018-07-27T06:02:46.639Z,26.00
2018-07-27T06:05:14.888Z,26.00
2018-07-27T06:10:11.263Z,26.10
2018-07-27T06:12:39.566Z,26.10
2018-07-27T06:20:04.703Z,26.20
2018-07-27T06:22:32.978Z,26.20
2018-07-27T06:25:01.251Z,26.20
2018-07-27T06:27:29.546Z,26.20
2018-07-27T06:29:58.239Z,26.20
2018-07-27T06:32:26.633Z,26.30
2018-07-27T06:34:54.958Z,26.40
2018-07-27T06:37:23.255Z,26.40
2018-07-27T06:42:19.500Z,26.50
2018-07-27T06:44:47.764Z,26.50
2018-07-27T06:47:16.068Z,26.60
2018-07-27T06:49:44.342Z,26.70
2018-07-27T06:52:12.655Z,26.80
2018-07-27T06:54:40.916Z,26.90
2018-07-27T06:57:09.196Z,27.10
2018-07-27T06:59:37.486Z,27.20
2018-07-27T07:02:05.729Z,27.30
2018-07-27T07:04:34.012Z,27.40
2018-07-27T07:07:02.337Z,27.50
2018-07-27T07:09:30.631Z,27.70
2018-07-27T07:11:58.947Z,27.70
2018-07-27T07:14:27.326Z,27.80
2018-07-27T07:19:23.616Z,28.10
2018-07-27T07:21:51.884Z,28.10
2018-07-27T07:24:20.131Z,28.20
2018-07-27T07:29:16.384Z,28.40
2018-07-27T07:31:44.649Z,28.50
2018-07-27T07:34:12.933Z,28.60
2018-07-27T07:36:41.220Z,28.80
2018-07-27T07:39:11.130Z,28.90
2018-07-27T07:41:40.332Z,28.90
2018-07-27T07:44:09.156Z,29.00
2018-07-27T07:46:38.037Z,29.10
2018-07-27T07:49:07.145Z,29.10
2018-07-27T07:51:36.761Z,29.30
2018-07-27T07:54:14.526Z,29.50
2018-07-27T07:56:57.980Z,29.60
2018-07-27T07:59:26.275Z,29.80
2018-07-27T08:04:37.237Z,29.90
2018-07-27T08:07:06.377Z,30.00
2018-07-27T08:09:34.667Z,30.00
2018-07-27T08:12:02.958Z,30.00
2018-07-27T08:14:31.303Z,30.00
2018-07-27T08:16:59.628Z,30.00
2018-07-27T08:19:27.937Z,30.00
2018-07-27T08:26:54.514Z,30.00
2018-07-27T08:29:24.041Z,30.00
2018-07-27T08:31:53.056Z,30.00
2018-07-27T08:34:21.604Z,29.90
2018-07-27T08:36:50.303Z,29.90
2018-07-27T08:39:22.246Z,29.90
2018-07-27T08:41:50.978Z,29.80
2018-07-27T08:44:21.689Z,29.80
2018-07-27T08:49:17.928Z,29.90
2018-07-27T08:51:46.323Z,30.00
2018-07-27T08:54:14.664Z,30.10
2018-07-27T08:56:55.479Z,30.10
2018-07-27T08:59:23.789Z,30.20
2018-07-27T09:01:52.095Z,30.30
2018-07-27T09:04:20.374Z,30.30
2018-07-27T09:06:48.641Z,30.40
2018-07-27T09:09:18.087Z,30.40
2018-07-27T09:11:46.403Z,30.60
2018-07-27T09:14:14.792Z,30.80
2018-07-27T09:16:43.099Z,30.90
2018-07-27T09:19:11.437Z,31.20
2018-07-27T09:21:40.920Z,31.40
2018-07-27T09:24:09.232Z,31.50
2018-07-27T09:26:37.510Z,31.70
2018-07-27T09:29:05.785Z,32.00
2018-07-27T09:31:34.062Z,32.00
2018-07-27T09:34:02.360Z,32.10
2018-07-27T09:36:30.639Z,32.20
2018-07-27T09:38:58.926Z,32.40
2018-07-27T09:41:27.235Z,32.40
2018-07-27T09:43:55.604Z,32.50
2018-07-27T09:46:23.859Z,32.60
2018-07-27T09:51:22.405Z,32.70
2018-07-27T09:53:50.975Z,32.90
2018-07-27T09:56:19.234Z,32.90
2018-07-27T09:58:47.559Z,33.00
2018-07-27T10:01:22.850Z,33.10
2018-07-27T10:03:51.864Z,33.10
2018-07-27T10:06:20.344Z,33.30
2018-07-27T10:08:51.878Z,33.30
2018-07-27T10:11:20.640Z,33.50
2018-07-27T10:13:48.940Z,33.50
2018-07-27T10:16:17.924Z,33.60
2018-07-27T10:18:46.293Z,33.80
2018-07-27T10:21:14.601Z,33.90
2018-07-27T10:23:42.987Z,34.00
2018-07-27T10:26:11.295Z,34.00
2018-07-27T10:28:39.667Z,34.10
2018-07-27T10:31:07.956Z,34.20
2018-07-27T10:33:36.233Z,34.20
2018-07-27T10:36:04.485Z,34.30
2018-07-27T10:38:32.841Z,34.40
2018-07-27T10:41:01.151Z,34.50
2018-07-27T10:45:57.464Z,34.60
2018-07-27T10:48:25.740Z,34.60
2018-07-27T10:50:54.028Z,34.70
2018-07-27T10:53:22.297Z,34.90
2018-07-27T11:00:46.764Z,35.40
2018-07-27T11:03:15.034Z,35.50
2018-07-27T11:08:11.371Z,35.70
2018-07-27T11:10:39.963Z,35.70
2018-07-27T11:13:08.267Z,35.80
2018-07-27T11:15:36.525Z,35.80
2018-07-27T11:18:06.292Z,35.90
2018-07-27T11:23:02.551Z,35.90
2018-07-27T11:25:31.017Z,35.90
2018-07-27T11:27:59.253Z,36.00
2018-07-27T11:32:55.556Z,36.30
2018-07-27T11:35:24.017Z,36.30
2018-07-27T11:37:52.492Z,36.30
2018-07-27T11:40:20.827Z,36.30
2018-07-27T11:42:49.156Z,36.40
2018-07-27T11:45:17.449Z,36.40
2018-07-27T11:47:45.727Z,36.50
2018-07-27T11:50:14.012Z,36.60
2018-07-27T11:52:42.479Z,36.50
2018-07-27T11:55:10.728Z,36.60
2018-07-27T11:57:39.023Z,36.70
2018-07-27T12:02:35.306Z,36.80
2018-07-27T12:05:03.585Z,36.80
2018-07-27T12:07:31.836Z,36.80
2018-07-27T12:10:00.110Z,36.80
2018-07-27T12:12:28.368Z,36.80
2018-07-27T12:14:56.759Z,36.90
2018-07-27T12:17:24.927Z,36.80
2018-07-27T12:22:21.243Z,36.80
2018-07-27T12:24:49.506Z,36.90
2018-07-27T12:27:17.912Z,36.90
2018-07-27T12:29:46.285Z,36.90
2018-07-27T12:32:14.577Z,37.00
2018-07-27T12:34:42.971Z,37.20
2018-07-27T12:37:11.229Z,37.30
2018-07-27T12:39:39.480Z,37.50
2018-07-27T12:42:07.753Z,37.50
2018-07-27T12:44:36.008Z,37.60
2018-07-27T12:47:04.781Z,37.70
2018-07-27T12:49:33.052Z,37.80
2018-07-27T12:52:01.329Z,37.90
2018-07-27T12:54:29.593Z,38.00
2018-07-27T12:56:57.944Z,38.00
2018-07-27T12:59:26.456Z,38.10
2018-07-27T13:01:54.746Z,38.00
2018-07-27T13:04:23.096Z,38.10
2018-07-27T13:06:51.372Z,38.00
2018-07-27T13:09:19.669Z,37.90
2018-07-27T13:11:48.276Z,38.00
2018-07-27T13:14:16.555Z,38.00
2018-07-27T13:16:44.826Z,38.00
2018-07-27T13:19:13.865Z,38.00
2018-07-27T13:21:42.216Z,38.00
2018-07-27T13:24:10.841Z,37.90
2018-07-27T13:26:39.173Z,38.20
2018-07-27T13:29:07.379Z,38.30
2018-07-27T13:31:57.600Z,38.10
2018-07-27T13:34:40.667Z,38.10
2018-07-27T13:39:37.609Z,38.20
2018-07-27T13:42:06.713Z,38.20
2018-07-27T13:44:36.312Z,38.20
2018-07-27T13:47:05.227Z,38.20
2018-07-27T13:49:33.486Z,38.40
2018-07-27T13:52:01.908Z,38.40
2018-07-27T13:54:31.230Z,38.50
2018-07-27T13:56:59.603Z,38.60
2018-07-27T13:59:28.249Z,38.70
2018-07-27T14:01:56.973Z,38.40
2018-07-27T14:06:55.328Z,38.60
2018-07-27T14:09:23.628Z,38.40
2018-07-27T14:11:51.900Z,38.40
2018-07-27T14:14:20.163Z,38.40
2018-07-27T14:16:48.413Z,38.40
2018-07-27T14:19:17.589Z,38.20
2018-07-27T14:21:45.908Z,38.40
2018-07-27T14:24:14.661Z,38.40
2018-07-27T14:26:43.141Z,38.40
2018-07-27T14:29:11.422Z,38.50
2018-07-27T14:34:08.129Z,38.70
2018-07-27T14:36:36.436Z,38.60
2018-07-27T14:39:08.631Z,38.60
2018-07-27T14:41:37.283Z,38.70
2018-07-27T14:44:05.652Z,38.80
2018-07-27T14:46:34.121Z,38.70
2018-07-27T14:49:02.404Z,38.70
2018-07-27T14:51:30.706Z,38.60
2018-07-27T14:53:58.989Z,38.60
2018-07-27T14:56:27.307Z,38.40
2018-07-27T14:58:55.560Z,38.30
2018-07-27T15:01:23.836Z,38.10
2018-07-27T15:03:52.136Z,38.00
2018-07-27T15:06:20.404Z,37.80
2018-07-27T15:08:48.670Z,37.80
2018-07-27T15:11:16.944Z,37.70
2018-07-27T15:13:45.208Z,37.60
2018-07-27T15:16:13.485Z,37.60
2018-07-27T15:18:42.504Z,37.60
2018-07-27T15:21:11.316Z,37.40
2018-07-27T15:23:39.696Z,37.30
2018-07-27T15:26:07.980Z,37.20
2018-07-27T15:28:36.425Z,37.10
2018-07-27T15:31:04.737Z,36.90
2018-07-27T15:33:33.209Z,36.60
2018-07-27T15:36:01.564Z,36.50
2018-07-27T15:38:29.900Z,36.30
2018-07-27T15:40:58.277Z,36.20
2018-07-27T15:43:26.535Z,36.10
2018-07-27T15:45:54.852Z,36.00
2018-07-27T15:48:23.651Z,35.90
2018-07-27T15:50:51.865Z,35.90
2018-07-27T15:53:20.120Z,35.90
2018-07-27T15:55:48.391Z,35.80
2018-07-27T15:58:16.644Z,35.70
2018-07-27T16:00:44.947Z,35.70
2018-07-27T16:05:41.405Z,35.60
2018-07-27T16:08:09.691Z,35.50
2018-07-27T16:10:37.968Z,35.50
2018-07-27T16:13:06.020Z,35.50
2018-07-27T16:15:34.287Z,35.50
2018-07-27T16:18:02.570Z,35.40
2018-07-27T16:20:30.904Z,35.40
2018-07-27T16:22:59.356Z,35.40
2018-07-27T16:27:55.714Z,35.40
2018-07-27T16:32:52.085Z,35.20
2018-07-27T16:40:16.480Z,35.20
2018-07-27T16:42:44.980Z,35.20
2018-07-27T16:45:13.266Z,35.20
2018-07-27T16:47:41.554Z,35.10
2018-07-27T16:50:09.819Z,35.10
2018-07-27T16:52:38.113Z,35.10
2018-07-27T16:55:06.432Z,35.10
2018-07-27T16:57:34.744Z,35.20
2018-07-27T17:00:03.070Z,35.10
2018-07-27T17:02:32.357Z,35.20
2018-07-27T17:05:03.318Z,35.10
2018-07-27T17:07:46.494Z,35.20
2018-07-27T17:10:14.779Z,35.20
2018-07-27T17:12:43.196Z,35.20
2018-07-27T17:15:11.513Z,35.20
2018-07-27T17:17:39.839Z,35.20
2018-07-27T17:20:08.652Z,35.30
2018-07-27T17:22:37.268Z,35.20
2018-07-27T17:25:05.566Z,35.20
2018-07-27T17:27:34.026Z,35.20
2018-07-27T17:30:02.316Z,35.10
2018-07-27T17:32:30.684Z,35.10
2018-07-27T17:37:27.066Z,35.10
2018-07-27T17:39:55.407Z,35.00
2018-07-27T17:42:23.716Z,34.90
2018-07-27T17:44:51.979Z,34.90
2018-07-27T17:47:20.547Z,34.80
2018-07-27T17:49:48.820Z,34.70
2018-07-27T17:52:17.087Z,34.60
2018-07-27T17:57:13.384Z,34.50
2018-07-27T17:59:41.649Z,34.50
2018-07-27T18:04:37.923Z,34.30
2018-07-27T18:09:34.231Z,34.20
2018-07-27T18:12:02.490Z,34.10
2018-07-27T18:14:30.788Z,34.00
2018-07-27T18:16:59.047Z,33.90
2018-07-27T18:21:55.373Z,33.90
2018-07-27T18:24:23.654Z,33.80
2018-07-27T18:26:51.941Z,33.80
2018-07-27T18:29:20.234Z,33.70
2018-07-27T18:31:48.535Z,33.70
2018-07-27T18:36:45.832Z,33.50
2018-07-27T18:39:14.161Z,33.50
2018-07-27T18:44:10.425Z,33.30
2018-07-27T18:49:07.892Z,33.20
2018-07-27T18:51:37.130Z,33.20
2018-07-27T18:56:33.852Z,33.00
2018-07-27T19:01:30.170Z,33.00
2018-07-27T19:03:58.427Z,32.90
2018-07-27T19:06:26.843Z,32.90
2018-07-27T19:08:55.327Z,32.80
2018-07-27T19:11:24.211Z,32.80
2018-07-27T19:13:53.177Z,32.60
2018-07-27T19:16:21.466Z,32.60
2018-07-27T19:18:49.769Z,32.50
2018-07-27T19:21:18.093Z,32.50
2018-07-27T19:23:46.389Z,32.40
2018-07-27T19:26:14.650Z,32.30
2018-07-27T19:28:42.915Z,32.30
2018-07-27T19:31:11.314Z,32.20
2018-07-27T19:33:39.576Z,32.20
2018-07-27T19:41:05.137Z,32.00
2018-07-27T19:43:33.420Z,31.90
2018-07-27T19:46:01.768Z,31.80
2018-07-27T19:48:30.138Z,31.80
2018-07-27T19:50:58.461Z,31.70
2018-07-27T19:53:27.078Z,31.70
2018-07-27T19:55:55.443Z,31.60
2018-07-27T19:58:23.739Z,31.60
2018-07-27T20:00:52.072Z,31.50
2018-07-27T20:03:20.343Z,31.40
2018-07-27T20:05:48.628Z,31.30
2018-07-27T20:08:17.019Z,31.30
2018-07-27T20:10:45.544Z,31.20
2018-07-27T20:13:13.790Z,31.10
2018-07-27T20:15:42.080Z,31.10
2018-07-27T20:18:10.400Z,31.00
2018-07-27T20:20:38.836Z,31.00
2018-07-27T20:23:07.095Z,30.90
2018-07-27T20:25:35.384Z,30.80
2018-07-27T20:30:31.807Z,30.70
2018-07-27T20:33:00.441Z,30.60
2018-07-27T20:35:28.724Z,30.60
2018-07-27T20:40:25.081Z,30.50
2018-07-27T20:42:53.350Z,30.40
2018-07-27T20:45:21.728Z,30.40
2018-07-27T20:47:49.982Z,30.30
2018-07-27T20:50:18.558Z,30.20
2018-07-27T20:52:47.658Z,30.20
2018-07-27T20:55:15.943Z,30.20
2018-07-27T20:57:44.200Z,30.10
2018-07-27T21:00:13.900Z,30.10
2018-07-27T21:02:43.636Z,30.10
2018-07-27T21:05:12.858Z,30.00
2018-07-27T21:07:41.948Z,30.00
2018-07-27T21:10:10.852Z,30.00
2018-07-27T21:12:39.463Z,30.00
2018-07-27T21:15:07.780Z,30.00
2018-07-27T21:17:36.248Z,30.00
2018-07-27T21:20:05.349Z,30.00
2018-07-27T21:22:33.604Z,29.90
2018-07-27T21:25:01.872Z,29.80
2018-07-27T21:29:58.307Z,29.30
2018-07-27T21:32:27.079Z,29.10
2018-07-27T21:34:55.421Z,28.80
2018-07-27T21:37:23.748Z,28.90
2018-07-27T21:39:52.310Z,28.70
2018-07-27T21:44:48.574Z,28.40
2018-07-27T21:47:16.864Z,27.90
2018-07-27T21:49:45.135Z,27.70
2018-07-27T21:52:13.412Z,27.50
2018-07-27T21:54:41.676Z,27.40
2018-07-27T21:57:09.964Z,27.20
2018-07-27T21:59:38.553Z,27.00
2018-07-27T22:02:06.836Z,26.90
2018-07-27T22:04:35.175Z,26.90
2018-07-27T22:07:03.472Z,26.50
2018-07-27T22:09:31.769Z,26.20
2018-07-27T22:12:00.048Z,26.10
2018-07-27T22:14:28.381Z,26.10
2018-07-27T22:17:07.631Z,26.10
2018-07-27T22:19:35.944Z,25.70
2018-07-27T22:22:04.200Z,25.70
2018-07-27T22:24:32.504Z,25.50
2018-07-27T22:27:00.777Z,25.60
2018-07-27T22:29:29.064Z,25.40
2018-07-27T22:31:57.337Z,25.00
2018-07-27T22:36:53.660Z,25.00
2018-07-27T22:39:21.952Z,24.90
2018-07-27T22:41:50.239Z,24.90
2018-07-27T22:44:18.879Z,24.80
2018-07-27T22:49:15.621Z,24.60
2018-07-27T22:51:43.900Z,24.50
2018-07-27T22:54:12.545Z,24.30
2018-07-27T22:59:08.832Z,24.30
2018-07-27T23:01:37.160Z,24.20
2018-07-27T23:04:05.936Z,24.10
2018-07-27T23:06:34.202Z,24.30
2018-07-27T23:09:02.516Z,24.30
2018-07-27T23:11:30.804Z,24.40
2018-07-27T23:13:59.096Z,24.30
2018-07-27T23:16:27.404Z,24.10
2018-07-27T23:18:55.684Z,24.20
2018-07-27T23:21:24.044Z,24.20
2018-07-27T23:23:52.338Z,24.20
2018-07-27T23:26:20.625Z,24.20
2018-07-27T23:28:48.925Z,24.30
2018-07-27T23:31:17.223Z,24.30
2018-07-27T23:33:48.633Z,24.30
2018-07-27T23:36:16.948Z,24.40
2018-07-27T23:38:45.237Z,24.40
2018-07-27T23:41:13.853Z,24.30
2018-07-27T23:43:42.160Z,24.20
2018-07-27T23:46:10.453Z,24.10
2018-07-27T23:48:38.744Z,24.10
2018-07-27T23:51:08.248Z,24.10
2018-07-27T23:53:37.260Z,24.10
2018-07-27T23:56:05.564Z,24.10
2018-07-27T23:58:33.859Z,24.20
